createdAt,value
2022-12-13T00:01:50.451Z,100453.53
2022-12-13T00:04:52.849Z,100448.50
2022-12-13T00:07:55.096Z,100466.84
2022-12-13T00:11:06.820Z,100460.56
2022-12-13T00:14:09.343Z,100470.50
2022-12-13T00:17:11.612Z,100452.41
2022-12-13T00:20:13.605Z,100461.81
2022-12-13T00:23:15.737Z,100465.22
2022-12-13T00:26:22.486Z,100472.22
2022-12-13T00:29:24.553Z,100472.56
2022-12-13T00:32:26.737Z,100463.66
2022-12-13T00:35:28.889Z,100484.19
2022-12-13T00:38:30.937Z,100481.16
2022-12-13T00:41:35.527Z,100483.72
2022-12-13T00:44:37.663Z,100455.81
2022-12-13T00:47:41.009Z,100478.72
2022-12-13T00:50:43.152Z,100452.00
2022-12-13T00:53:45.287Z,100455.22
2022-12-13T00:56:47.722Z,100455.88
2022-12-13T00:59:50.886Z,100458.28
2022-12-13T01:02:53.934Z,100471.13
2022-12-13T01:09:21.850Z,100482.06
2022-12-13T01:12:24.147Z,100480.41
2022-12-13T01:15:26.249Z,100476.41
2022-12-13T01:18:28.381Z,100457.72
2022-12-13T01:21:30.461Z,100465.47
2022-12-13T01:24:32.916Z,100462.59
2022-12-13T01:27:35.057Z,100469.47
2022-12-13T01:30:37.190Z,100460.59
2022-12-13T01:33:40.651Z,100482.88
2022-12-13T01:36:44.731Z,100477.72
2022-12-13T01:39:46.799Z,100503.59
2022-12-13T01:42:48.924Z,100500.75
2022-12-13T01:45:51.023Z,100515.06
2022-12-13T01:49:19.301Z,100501.59
2022-12-13T01:52:22.901Z,100527.13
2022-12-13T01:55:27.817Z,100518.75
2022-12-13T01:58:30.697Z,100521.81
2022-12-13T02:01:33.205Z,100523.31
2022-12-13T02:04:45.184Z,100502.47
2022-12-13T02:07:48.927Z,100530.38
2022-12-13T02:10:52.409Z,100548.19
2022-12-13T02:13:54.776Z,100514.59
2022-12-13T02:17:53.361Z,100550.53
2022-12-13T02:21:03.626Z,100533.56
2022-12-13T02:24:24.401Z,100550.03
2022-12-13T02:28:01.010Z,100560.63
2022-12-13T02:31:30.261Z,100559.44
2022-12-13T02:34:42.272Z,100551.56
2022-12-13T02:38:06.219Z,100564.00
2022-12-13T02:41:21.159Z,100566.19
2022-12-13T02:44:25.632Z,100552.75
2022-12-13T02:47:31.655Z,100557.91
2022-12-13T02:50:36.039Z,100563.78
2022-12-13T02:53:41.260Z,100570.00
2022-12-13T02:56:53.085Z,100568.34
2022-12-13T02:59:55.295Z,100568.50
2022-12-13T03:03:31.379Z,100575.38
2022-12-13T03:06:54.616Z,100567.63
2022-12-13T03:10:51.638Z,100575.69
2022-12-13T03:14:00.452Z,100566.34
2022-12-13T03:17:05.743Z,100566.47
2022-12-13T03:20:22.515Z,100546.50
2022-12-13T03:23:26.392Z,100565.00
2022-12-13T03:26:28.806Z,100556.75
2022-12-13T03:29:30.920Z,100559.44
2022-12-13T03:32:33.264Z,100555.53
2022-12-13T03:35:44.913Z,100556.66
2022-12-13T03:38:50.703Z,100567.41
2022-12-13T03:41:52.905Z,100564.22
2022-12-13T03:44:54.914Z,100539.50
2022-12-13T03:47:57.035Z,100566.06
2022-12-13T03:50:59.252Z,100560.31
2022-12-13T03:54:01.378Z,100538.28
2022-12-13T03:57:03.772Z,100564.03
2022-12-13T04:00:06.711Z,100554.78
2022-12-13T04:03:14.750Z,100565.81
2022-12-13T04:06:21.795Z,100572.50
2022-12-13T04:09:24.347Z,100571.16
2022-12-13T04:12:48.384Z,100563.78
2022-12-13T04:15:50.760Z,100558.50
2022-12-13T04:18:52.886Z,100571.44
2022-12-13T04:21:54.973Z,100569.41
2022-12-13T04:24:57.013Z,100549.75
2022-12-13T04:27:59.191Z,100561.66
2022-12-13T04:31:02.159Z,100556.44
2022-12-13T04:34:04.193Z,100551.56
2022-12-13T04:37:06.860Z,100566.47
2022-12-13T04:40:09.470Z,100552.34
2022-12-13T04:43:20.579Z,100566.50
2022-12-13T04:46:23.280Z,100564.63
2022-12-13T04:49:25.387Z,100559.56
2022-12-13T04:52:29.299Z,100567.53
2022-12-13T04:55:34.209Z,100568.84
2022-12-13T04:58:36.247Z,100568.16
2022-12-13T05:01:38.369Z,100577.22
2022-12-13T05:04:42.693Z,100559.75
2022-12-13T05:07:44.874Z,100583.34
2022-12-13T05:10:46.861Z,100578.50
2022-12-13T05:13:49.038Z,100569.41
2022-12-13T05:16:51.247Z,100582.50
2022-12-13T05:19:55.630Z,100564.66
2022-12-13T05:22:58.859Z,100580.84
2022-12-13T05:26:01.196Z,100563.47
2022-12-13T05:29:04.182Z,100581.69
2022-12-13T05:32:06.488Z,100589.75
2022-12-13T05:35:08.889Z,100570.72
2022-12-13T05:38:15.447Z,100587.97
2022-12-13T05:41:22.376Z,100596.91
2022-12-13T05:44:24.558Z,100594.09
2022-12-13T05:47:26.645Z,100598.88
2022-12-13T05:50:28.782Z,100598.41
2022-12-13T05:53:31.267Z,100591.31
2022-12-13T05:56:34.301Z,100594.69
2022-12-13T05:59:38.434Z,100599.56
2022-12-13T06:02:42.192Z,100603.28
2022-12-13T06:05:44.755Z,100605.78
2022-12-13T06:08:46.817Z,100600.91
2022-12-13T06:11:49.736Z,100608.16
2022-12-13T06:14:52.116Z,100613.34
2022-12-13T06:18:03.461Z,100608.84
2022-12-13T06:21:07.168Z,100617.56
2022-12-13T06:24:09.494Z,100608.16
2022-12-13T06:27:12.053Z,100609.59
2022-12-13T06:30:14.247Z,100605.22
2022-12-13T06:33:23.398Z,100617.94
2022-12-13T06:36:25.697Z,100629.56
2022-12-13T06:39:33.183Z,100613.41
2022-12-13T06:42:35.570Z,100606.13
2022-12-13T06:45:42.275Z,100613.75
2022-12-13T06:48:45.757Z,100616.47
2022-12-13T06:51:49.309Z,100623.13
2022-12-13T06:54:55.486Z,100597.44
2022-12-13T06:58:00.666Z,100632.59
2022-12-13T07:01:15.012Z,100626.75
2022-12-13T07:04:29.629Z,100629.84
2022-12-13T07:07:33.008Z,100620.44
2022-12-13T07:10:35.329Z,100627.88
2022-12-13T07:13:37.804Z,100634.88
2022-12-13T07:16:39.862Z,100625.31
2022-12-13T07:19:41.874Z,100634.75
2022-12-13T07:22:48.511Z,100633.38
2022-12-13T07:25:56.034Z,100648.13
2022-12-13T07:29:00.135Z,100648.31
2022-12-13T07:32:02.351Z,100630.97
2022-12-13T07:35:04.574Z,100656.78
2022-12-13T07:38:08.356Z,100644.81
2022-12-13T07:41:12.250Z,100653.41
2022-12-13T07:44:14.502Z,100642.19
2022-12-13T07:47:16.567Z,100645.03
2022-12-13T07:50:36.850Z,100661.34
2022-12-13T07:53:40.564Z,100664.28
2022-12-13T07:56:42.838Z,100674.22
2022-12-13T07:59:44.994Z,100680.47
2022-12-13T08:02:47.310Z,100691.16
2022-12-13T08:05:49.440Z,100696.66
2022-12-13T08:09:00.693Z,100684.91
2022-12-13T08:12:05.518Z,100687.44
2022-12-13T08:15:13.790Z,100683.50
2022-12-13T08:18:16.334Z,100675.66
2022-12-13T08:21:51.762Z,100673.81
2022-12-13T08:24:40.827Z,100683.03
2022-12-13T08:27:43.230Z,100688.03
2022-12-13T08:30:45.917Z,100679.03
2022-12-13T08:33:48.867Z,100677.19
2022-12-13T08:36:52.506Z,100683.88
2022-12-13T08:40:06.509Z,100677.59
2022-12-13T08:43:08.570Z,100685.09
2022-12-13T08:46:10.705Z,100693.66
2022-12-13T08:49:12.866Z,100686.97
2022-12-13T08:52:15.211Z,100687.06
2022-12-13T08:55:19.996Z,100686.38
2022-12-13T08:58:24.501Z,100685.94
2022-12-13T09:01:26.501Z,100692.56
2022-12-13T09:04:31.225Z,100694.44
2022-12-13T09:07:36.390Z,100699.97
2022-12-13T09:10:38.918Z,100692.84
2022-12-13T09:13:43.290Z,100695.81
2022-12-13T09:16:50.755Z,100697.44
2022-12-13T09:19:58.457Z,100706.22
2022-12-13T09:23:03.540Z,100717.59
2022-12-13T09:26:06.345Z,100693.22
2022-12-13T09:29:10.700Z,100693.03
2022-12-13T09:32:13.774Z,100689.63
2022-12-13T09:35:15.980Z,100700.53
2022-12-13T09:38:18.673Z,100702.69
2022-12-13T09:41:32.450Z,100715.91
2022-12-13T09:44:53.650Z,100717.41
2022-12-13T09:48:13.498Z,100720.75
2022-12-13T09:51:26.177Z,100723.88
2022-12-13T09:54:34.443Z,100724.31
2022-12-13T09:57:37.257Z,100719.53
2022-12-13T10:00:40.968Z,100711.94
2022-12-13T10:03:51.925Z,100713.69
2022-12-13T10:06:54.899Z,100711.06
2022-12-13T10:10:04.028Z,100733.75
2022-12-13T10:13:27.686Z,100735.75
2022-12-13T10:16:37.127Z,100730.28
2022-12-13T10:19:43.435Z,100698.31
2022-12-13T10:23:33.320Z,100710.25
2022-12-13T10:26:44.674Z,100721.94
2022-12-13T10:30:05.935Z,100716.06
2022-12-13T10:33:24.397Z,100693.41
2022-12-13T10:36:41.589Z,100712.25
2022-12-13T10:39:44.931Z,100725.41
2022-12-13T10:43:15.508Z,100706.75
2022-12-13T10:46:25.151Z,100711.53
2022-12-13T10:49:38.146Z,100716.19
2022-12-13T10:52:47.227Z,100710.88
2022-12-13T10:55:55.776Z,100718.31
2022-12-13T10:59:37.524Z,100711.25
2022-12-13T11:02:39.934Z,100712.59
2022-12-13T11:05:42.498Z,100712.97
2022-12-13T11:08:44.756Z,100713.69
2022-12-13T11:11:50.408Z,100706.00
2022-12-13T11:15:04.704Z,100720.34
2022-12-13T11:18:19.818Z,100721.38
2022-12-13T11:21:29.563Z,100714.09
2022-12-13T11:24:36.328Z,100715.69
2022-12-13T11:28:02.522Z,100728.41
2022-12-13T11:31:28.610Z,100739.69
2022-12-13T11:34:59.654Z,100741.13
2022-12-13T11:38:17.917Z,100749.03
2022-12-13T11:41:31.395Z,100734.50
2022-12-13T11:44:55.956Z,100731.66
2022-12-13T11:48:09.987Z,100740.94
2022-12-13T11:51:15.860Z,100742.44
2022-12-13T11:54:28.377Z,100748.19
2022-12-13T11:57:44.541Z,100748.69
2022-12-13T12:01:05.167Z,100765.50
2022-12-13T12:04:19.641Z,100757.94
2022-12-13T12:07:58.533Z,100755.19
2022-12-13T12:11:35.864Z,100761.81
2022-12-13T12:14:54.299Z,100747.28
2022-12-13T12:17:57.012Z,100759.28
2022-12-13T12:22:05.017Z,100770.94
2022-12-13T12:25:43.991Z,100781.88
2022-12-13T12:28:51.726Z,100776.47
2022-12-13T12:31:58.232Z,100776.97
2022-12-13T12:35:01.625Z,100774.97
2022-12-13T12:38:04.115Z,100779.88
2022-12-13T12:41:21.283Z,100796.03
2022-12-13T12:44:31.338Z,100789.72
2022-12-13T12:51:55.846Z,100799.78
2022-12-13T12:55:13.492Z,100805.06
2022-12-13T12:58:29.432Z,100809.78
2022-12-13T13:02:12.933Z,100820.28
2022-12-13T13:05:19.111Z,100826.34
2022-12-13T13:08:56.610Z,100827.72
2022-12-13T13:12:28.398Z,100829.03
2022-12-13T13:15:53.330Z,100832.28
2022-12-13T13:18:56.570Z,100839.50
2022-12-13T13:22:01.483Z,100837.44
2022-12-13T13:25:06.946Z,100845.53
2022-12-13T13:28:14.886Z,100837.63
2022-12-13T13:31:17.212Z,100831.72
2022-12-13T13:34:27.430Z,100836.69
2022-12-13T13:37:46.753Z,100852.94
2022-12-13T13:40:49.869Z,100839.78
2022-12-13T13:43:52.016Z,100851.66
2022-12-13T13:47:22.482Z,100868.81
2022-12-13T13:50:33.475Z,100869.13
2022-12-13T13:53:52.765Z,100879.19
2022-12-13T13:58:07.095Z,100878.25
2022-12-13T14:01:33.629Z,100878.66
2022-12-13T14:04:51.702Z,100878.63
2022-12-13T14:08:20.775Z,100876.00
2022-12-13T14:12:00.322Z,100893.69
2022-12-13T14:15:30.739Z,100898.25
2022-12-13T14:18:53.606Z,100890.13
2022-12-13T14:21:58.418Z,100894.16
2022-12-13T14:25:19.067Z,100907.91
2022-12-13T14:28:45.901Z,100919.38
2022-12-13T14:31:50.122Z,100917.38
2022-12-13T14:34:54.307Z,100924.91
2022-12-13T14:38:08.150Z,100922.06
2022-12-13T14:41:20.044Z,100922.16
2022-12-13T14:44:27.872Z,100918.63
2022-12-13T14:47:31.029Z,100924.97
2022-12-13T14:50:36.720Z,100905.38
2022-12-13T14:53:41.935Z,100941.03
2022-12-13T14:57:02.395Z,100959.34
2022-12-13T15:00:29.199Z,100920.72
2022-12-13T15:03:31.582Z,100934.22
2022-12-13T15:06:33.652Z,100954.91
2022-12-13T15:09:39.546Z,100916.19
2022-12-13T15:12:44.326Z,100961.78
2022-12-13T15:15:56.372Z,100965.31
2022-12-13T15:19:29.970Z,100968.84
2022-12-13T15:22:37.973Z,100966.69
2022-12-13T15:25:40.908Z,100966.09
2022-12-13T15:28:46.648Z,100963.84
2022-12-13T15:31:49.371Z,100957.50
2022-12-13T15:34:52.044Z,100991.72
2022-12-13T15:37:54.103Z,100985.81
2022-12-13T15:40:57.077Z,100993.59
2022-12-13T15:44:27.902Z,100971.09
2022-12-13T15:47:31.675Z,100963.69
2022-12-13T15:50:43.843Z,100985.38
2022-12-13T15:54:10.491Z,100992.47
2022-12-13T15:57:21.816Z,100992.84
2022-12-13T16:00:33.596Z,100997.53
2022-12-13T16:03:46.989Z,100990.03
2022-12-13T16:06:53.357Z,100990.63
2022-12-13T16:09:58.189Z,100988.28
2022-12-13T16:13:07.873Z,101004.84
2022-12-13T16:16:30.568Z,100996.28
2022-12-13T16:19:33.017Z,101010.03
2022-12-13T16:22:35.072Z,100987.97
2022-12-13T16:25:37.245Z,101001.50
2022-12-13T16:28:40.603Z,101000.88
2022-12-13T16:31:44.361Z,100984.78
2022-12-13T16:34:46.552Z,100990.56
2022-12-13T16:37:49.255Z,100995.00
2022-12-13T16:40:54.738Z,100997.75
2022-12-13T16:44:01.872Z,100995.41
2022-12-13T16:47:21.933Z,100999.00
2022-12-13T16:50:29.180Z,100982.38
2022-12-13T16:53:31.805Z,100997.78
2022-12-13T16:56:33.890Z,101004.59
2022-12-13T16:59:35.905Z,101010.47
2022-12-13T17:02:38.493Z,101008.53
2022-12-13T17:05:42.954Z,101006.28
2022-12-13T17:08:45.134Z,101003.34
2022-12-13T17:11:47.433Z,101014.97
2022-12-13T17:14:49.682Z,101022.41
2022-12-13T17:17:51.806Z,101018.06
2022-12-13T17:20:58.359Z,101003.34
2022-12-13T17:24:03.157Z,101009.84
2022-12-13T17:27:05.472Z,101012.22
2022-12-13T17:30:18.187Z,100991.50
2022-12-13T17:33:23.156Z,101001.41
2022-12-13T17:36:27.007Z,101011.31
2022-12-13T17:39:29.275Z,100993.91
2022-12-13T17:42:36.201Z,100997.34
2022-12-13T17:45:39.189Z,100996.69
2022-12-13T17:48:42.035Z,100977.13
2022-12-13T17:51:44.122Z,100985.88
2022-12-13T17:54:57.159Z,100982.25
2022-12-13T17:58:04.540Z,100993.88
2022-12-13T18:01:26.830Z,101005.06
2022-12-13T18:04:36.382Z,101008.38
2022-12-13T18:08:03.382Z,101039.50
2022-12-13T18:14:42.442Z,101033.91
2022-12-13T18:18:10.777Z,101035.69
2022-12-13T18:21:11.109Z,101057.25
2022-12-13T18:24:23.194Z,101058.19
2022-12-13T18:27:25.343Z,101061.16
2022-12-13T18:30:28.293Z,101065.13
2022-12-13T18:33:33.474Z,101076.91
2022-12-13T18:36:36.413Z,101095.66
2022-12-13T18:39:38.758Z,101094.97
2022-12-13T18:42:41.025Z,101091.34
2022-12-13T18:45:43.357Z,101088.31
2022-12-13T18:48:45.833Z,101096.44
2022-12-13T18:51:49.173Z,101111.50
2022-12-13T18:54:56.599Z,101111.13
2022-12-13T18:57:58.630Z,101106.06
2022-12-13T19:01:01.201Z,101087.34
2022-12-13T19:04:04.450Z,101104.63
2022-12-13T19:07:32.296Z,101086.03
2022-12-13T19:10:37.663Z,101097.47
2022-12-13T19:13:43.280Z,101111.25
2022-12-13T19:16:45.346Z,101105.16
2022-12-13T19:19:50.398Z,101083.97
2022-12-13T19:22:55.391Z,101100.88
2022-12-13T19:26:08.287Z,101098.88
2022-12-13T19:29:12.575Z,101111.50
2022-12-13T19:32:14.799Z,101111.13
2022-12-13T19:35:17.363Z,101104.97
2022-12-13T19:38:20.102Z,101094.50
2022-12-13T19:41:24.201Z,101114.19
2022-12-13T19:44:27.720Z,101114.03
2022-12-13T19:47:29.963Z,101101.84
2022-12-13T19:50:32.222Z,101084.81
2022-12-13T19:53:35.654Z,101111.47
2022-12-13T19:56:37.828Z,101094.81
2022-12-13T19:59:40.932Z,101111.72
2022-12-13T20:02:43.416Z,101106.94
2022-12-13T20:05:56.357Z,101110.19
2022-12-13T20:08:58.587Z,101112.31
2022-12-13T20:12:01.078Z,101119.63
2022-12-13T20:15:05.268Z,101106.50
2022-12-13T20:18:07.355Z,101118.00
2022-12-13T20:21:12.840Z,101060.00
2022-12-13T20:24:26.692Z,101111.03
2022-12-13T20:27:29.053Z,101114.75
2022-12-13T20:30:31.167Z,101103.19
2022-12-13T20:33:34.694Z,101074.88
2022-12-13T20:36:37.392Z,101105.59
2022-12-13T20:42:43.295Z,101110.94
2022-12-13T20:45:45.473Z,101110.53
2022-12-13T20:48:48.874Z,101122.31
2022-12-13T20:51:51.030Z,101113.81
2022-12-13T20:54:53.123Z,101105.81
2022-12-13T20:57:55.393Z,101107.38
2022-12-13T21:00:57.956Z,101091.59
2022-12-13T21:04:02.105Z,101120.50
2022-12-13T21:07:04.648Z,101098.47
2022-12-13T21:10:07.432Z,101092.44
2022-12-13T21:13:09.969Z,101127.19
2022-12-13T21:16:13.171Z,101116.75
2022-12-13T21:19:18.145Z,101105.44
2022-12-13T21:22:21.932Z,101134.56
2022-12-13T21:25:24.932Z,101136.91
2022-12-13T21:28:29.477Z,101115.25
2022-12-13T21:31:39.451Z,101137.03
2022-12-13T21:35:10.902Z,101130.91
2022-12-13T21:38:22.801Z,101127.63
2022-12-13T21:41:25.625Z,101135.41
2022-12-13T21:44:28.672Z,101102.44
2022-12-13T21:47:33.519Z,101136.59
2022-12-13T21:50:35.961Z,101127.44
2022-12-13T21:53:38.540Z,101139.56
2022-12-13T21:57:00.178Z,101131.97
2022-12-13T22:00:03.800Z,101148.09
2022-12-13T22:03:15.523Z,101121.41
2022-12-13T22:06:17.671Z,101129.41
2022-12-13T22:09:19.921Z,101131.22
2022-12-13T22:12:28.074Z,101149.31
2022-12-13T22:15:30.180Z,101137.41
2022-12-13T22:18:32.306Z,101152.97
2022-12-13T22:21:35.435Z,101140.69
2022-12-13T22:24:37.592Z,101131.47
2022-12-13T22:27:39.661Z,101132.09
2022-12-13T22:30:42.367Z,101147.66
2022-12-13T22:33:46.664Z,101144.63
2022-12-13T22:36:49.040Z,101126.47
2022-12-13T22:39:51.308Z,101120.81
2022-12-13T22:42:53.940Z,101139.84
2022-12-13T22:46:04.215Z,101118.47
2022-12-13T22:49:07.461Z,101135.19
2022-12-13T22:52:09.701Z,101130.03
2022-12-13T22:55:13.151Z,101144.34
2022-12-13T22:58:15.305Z,101133.16
2022-12-13T23:01:20.899Z,101130.47
2022-12-13T23:04:25.021Z,101133.94
2022-12-13T23:07:28.236Z,101123.50
2022-12-13T23:10:48.786Z,101134.69
2022-12-13T23:13:55.516Z,101146.91
2022-12-13T23:16:58.640Z,101141.44
2022-12-13T23:20:00.914Z,101138.31
2022-12-13T23:23:03.106Z,101134.44
2022-12-13T23:26:28.602Z,101157.16
2022-12-13T23:29:30.849Z,101141.38
2022-12-13T23:32:34.189Z,101143.59
2022-12-13T23:35:36.227Z,101142.91
2022-12-13T23:38:39.472Z,101147.53
2022-12-13T23:41:43.089Z,101150.34
2022-12-13T23:44:45.296Z,101132.94
2022-12-13T23:47:47.523Z,101139.53
2022-12-13T23:50:52.016Z,101167.75
2022-12-13T23:53:56.542Z,101164.75
2022-12-13T23:56:58.786Z,101172.88
